createdAt,value
2022-10-28T00:00:35.191Z,5.30
2022-10-28T00:03:03.001Z,5.35
2022-10-28T00:05:34.364Z,5.40
2022-10-28T00:08:02.063Z,5.95
2022-10-28T00:10:30.924Z,5.40
2022-10-28T00:12:58.472Z,5.28
2022-10-28T00:15:26.292Z,5.20
2022-10-28T00:17:54.185Z,5.32
2022-10-28T00:20:21.943Z,5.40
2022-10-28T00:22:49.671Z,5.45
2022-10-28T00:25:17.257Z,5.18
2022-10-28T00:27:46.245Z,5.28
2022-10-28T00:30:14.043Z,5.00
2022-10-28T00:32:41.551Z,4.70
2022-10-28T00:35:09.219Z,4.68
2022-10-28T00:37:36.881Z,4.85
2022-10-28T00:40:04.713Z,4.95
2022-10-28T00:42:32.233Z,5.22
2022-10-28T00:45:01.658Z,4.60
2022-10-28T00:47:43.094Z,5.32
2022-10-28T00:50:20.335Z,4.95
2022-10-28T00:52:49.709Z,4.60
2022-10-28T00:55:18.666Z,5.32
2022-10-28T00:57:46.813Z,5.22
2022-10-28T01:00:16.340Z,5.00
2022-10-28T01:02:45.499Z,5.22
2022-10-28T01:05:14.148Z,4.80
2022-10-28T01:07:41.734Z,5.50
2022-10-28T01:10:10.113Z,5.50
2022-10-28T01:12:42.427Z,4.65
2022-10-28T01:15:13.482Z,4.97
2022-10-28T01:17:55.427Z,5.32
2022-10-28T01:20:45.236Z,5.53
2022-10-28T01:23:16.579Z,4.70
2022-10-28T01:25:59.173Z,5.47
2022-10-28T01:28:41.326Z,5.43
2022-10-28T01:31:16.729Z,5.07
2022-10-28T01:33:48.965Z,5.40
2022-10-28T01:36:18.881Z,5.35
2022-10-28T01:38:50.599Z,5.35
2022-10-28T01:41:19.324Z,4.95
2022-10-28T01:43:48.213Z,5.50
2022-10-28T01:46:18.983Z,5.78
2022-10-28T01:48:48.904Z,5.72
2022-10-28T01:51:21.060Z,5.25
2022-10-28T01:53:50.242Z,5.97
2022-10-28T01:56:21.584Z,5.53
2022-10-28T01:58:49.431Z,5.38
2022-10-28T02:01:18.828Z,5.43
2022-10-28T02:03:46.593Z,5.57
2022-10-28T02:06:16.569Z,6.47
2022-10-28T02:08:47.828Z,5.55
2022-10-28T02:11:23.612Z,5.95
2022-10-28T02:13:56.245Z,5.90
2022-10-28T02:16:28.432Z,6.00
2022-10-28T02:19:00.009Z,6.00
2022-10-28T02:21:33.416Z,5.47
2022-10-28T02:24:04.235Z,5.70
2022-10-28T02:26:35.980Z,5.75
2022-10-28T02:29:07.088Z,5.43
2022-10-28T02:31:37.881Z,6.07
2022-10-28T02:34:07.813Z,6.10
2022-10-28T02:36:37.397Z,5.45
2022-10-28T02:39:06.583Z,5.97
2022-10-28T02:41:36.130Z,6.38
2022-10-28T02:44:06.962Z,6.28
2022-10-28T02:46:36.444Z,6.60
2022-10-28T02:49:05.623Z,6.07
2022-10-28T02:51:35.986Z,6.22
2022-10-28T02:54:05.536Z,6.82
2022-10-28T02:56:35.663Z,6.72
2022-10-28T02:59:03.262Z,6.65
2022-10-28T03:01:30.892Z,6.93
2022-10-28T03:03:59.912Z,6.80
2022-10-28T03:06:27.485Z,7.05
2022-10-28T03:08:55.043Z,7.03
2022-10-28T03:11:22.692Z,6.72
2022-10-28T03:13:50.312Z,7.55
2022-10-28T03:16:17.911Z,7.55
2022-10-28T03:18:45.453Z,7.80
2022-10-28T03:21:14.340Z,7.63
2022-10-28T03:23:41.886Z,7.65
2022-10-28T03:26:09.401Z,7.65
2022-10-28T03:28:36.974Z,6.68
2022-10-28T03:31:04.815Z,6.88
2022-10-28T03:33:32.396Z,7.32
2022-10-28T03:35:59.894Z,6.90
2022-10-28T03:38:28.806Z,7.38
2022-10-28T03:40:56.508Z,7.47
2022-10-28T03:43:24.248Z,7.78
2022-10-28T03:45:51.946Z,6.78
2022-10-28T03:48:19.899Z,7.28
2022-10-28T03:50:47.591Z,6.90
2022-10-28T03:53:15.192Z,7.50
2022-10-28T03:55:44.065Z,7.53
2022-10-28T03:58:11.702Z,7.53
2022-10-28T04:00:39.175Z,7.15
2022-10-28T04:03:06.856Z,6.38
2022-10-28T04:05:34.345Z,7.32
2022-10-28T04:08:01.908Z,7.68
2022-10-28T04:10:29.449Z,8.05
2022-10-28T04:13:01.747Z,12.50
2022-10-28T04:15:29.483Z,9.27
2022-10-28T04:17:57.139Z,10.00
2022-10-28T04:20:25.071Z,10.43
2022-10-28T04:22:57.080Z,9.82
2022-10-28T04:25:25.503Z,8.90
2022-10-28T04:27:53.328Z,9.15
2022-10-28T04:30:22.491Z,8.30
2022-10-28T04:32:50.049Z,7.35
2022-10-28T04:35:17.767Z,8.13
2022-10-28T04:37:45.283Z,7.55
2022-10-28T04:40:13.365Z,7.55
2022-10-28T04:42:40.991Z,7.18
2022-10-28T04:45:09.218Z,7.40
2022-10-28T04:47:38.108Z,8.15
2022-10-28T04:50:06.115Z,7.97
2022-10-28T04:52:33.653Z,7.40
2022-10-28T04:55:01.278Z,7.03
2022-10-28T04:57:28.817Z,7.45
2022-10-28T04:59:56.387Z,7.88
2022-10-28T05:02:24.365Z,7.30
2022-10-28T05:04:53.292Z,7.20
2022-10-28T05:07:22.874Z,7.40
2022-10-28T05:09:51.439Z,7.80
2022-10-28T05:12:19.040Z,9.27
2022-10-28T05:14:48.975Z,7.75
2022-10-28T05:17:18.816Z,6.65
2022-10-28T05:19:46.509Z,6.57
2022-10-28T05:22:15.600Z,6.50
2022-10-28T05:24:43.247Z,7.40
2022-10-28T05:27:10.987Z,6.70
2022-10-28T05:29:38.611Z,6.68
2022-10-28T05:32:06.222Z,7.10
2022-10-28T05:34:33.754Z,6.20
2022-10-28T05:37:01.323Z,7.10
2022-10-28T05:39:30.208Z,6.20
2022-10-28T05:41:57.745Z,6.35
2022-10-28T05:44:25.220Z,7.10
2022-10-28T05:46:54.052Z,6.40
2022-10-28T05:49:22.036Z,5.97
2022-10-28T05:51:49.574Z,7.05
2022-10-28T05:54:17.119Z,9.13
2022-10-28T05:56:46.983Z,6.57
2022-10-28T05:59:14.865Z,7.22
2022-10-28T06:01:42.388Z,7.07
2022-10-28T06:04:10.139Z,7.00
2022-10-28T06:06:37.776Z,6.22
2022-10-28T06:09:05.557Z,7.63
2022-10-28T06:11:31.554Z,7.07
2022-10-28T06:14:00.534Z,6.95
2022-10-28T06:16:28.228Z,6.68
2022-10-28T06:18:57.285Z,6.82
2022-10-28T06:21:24.904Z,7.60
2022-10-28T06:23:52.397Z,6.25
2022-10-28T06:26:20.054Z,9.07
2022-10-28T06:28:48.148Z,7.53
2022-10-28T06:31:17.161Z,7.40
2022-10-28T06:33:44.826Z,6.75
2022-10-28T06:36:12.523Z,7.68
2022-10-28T06:38:40.076Z,7.00
2022-10-28T06:41:07.628Z,7.30
2022-10-28T06:43:35.230Z,7.47
2022-10-28T06:46:03.879Z,7.55
2022-10-28T06:48:34.772Z,8.02
2022-10-28T06:51:03.671Z,7.78
2022-10-28T06:53:31.267Z,6.90
2022-10-28T06:55:59.458Z,7.60
2022-10-28T06:58:27.164Z,6.60
2022-10-28T07:00:55.275Z,7.15
2022-10-28T07:03:23.157Z,6.53
2022-10-28T07:05:51.439Z,6.78
2022-10-28T07:08:20.730Z,6.97
2022-10-28T07:10:54.314Z,7.57
2022-10-28T07:13:21.927Z,7.28
2022-10-28T07:15:51.810Z,7.43
2022-10-28T07:18:19.347Z,7.93
2022-10-28T07:20:47.170Z,6.20
2022-10-28T07:23:14.724Z,6.03
2022-10-28T07:25:43.956Z,6.75
2022-10-28T07:28:11.564Z,6.50
2022-10-28T07:30:39.038Z,6.53
2022-10-28T07:33:06.651Z,6.18
2022-10-28T07:35:34.189Z,6.53
2022-10-28T07:38:01.867Z,6.45
2022-10-28T07:40:29.614Z,5.95
2022-10-28T07:42:58.946Z,6.43
2022-10-28T07:45:26.588Z,6.10
2022-10-28T07:47:54.214Z,9.10
2022-10-28T07:50:22.025Z,6.53
2022-10-28T07:52:49.585Z,5.85
2022-10-28T07:55:17.359Z,5.97
2022-10-28T07:57:44.986Z,6.18
2022-10-28T08:00:14.342Z,6.03
2022-10-28T08:02:42.008Z,6.05
2022-10-28T08:05:09.714Z,5.80
2022-10-28T08:07:38.722Z,6.60
2022-10-28T08:10:07.418Z,7.05
2022-10-28T08:12:35.185Z,5.88
2022-10-28T08:15:02.795Z,5.10
2022-10-28T08:17:31.809Z,5.70
2022-10-28T08:19:59.354Z,5.75
2022-10-28T08:22:26.973Z,5.78
2022-10-28T08:24:54.510Z,4.95
2022-10-28T08:27:22.041Z,5.50
2022-10-28T08:29:49.639Z,4.85
2022-10-28T08:32:17.196Z,5.07
2022-10-28T08:34:46.068Z,4.80
2022-10-28T08:37:16.034Z,4.80
2022-10-28T08:39:43.842Z,5.95
2022-10-28T08:42:24.878Z,5.22
2022-10-28T08:44:57.576Z,4.78
2022-10-28T08:47:31.281Z,4.90
2022-10-28T08:50:03.467Z,5.50
2022-10-28T08:52:34.945Z,5.25
2022-10-28T08:55:04.907Z,5.03
2022-10-28T08:57:36.027Z,5.25
2022-10-28T09:00:06.003Z,5.22
2022-10-28T09:02:37.418Z,4.57
2022-10-28T09:05:16.340Z,4.47
2022-10-28T09:07:43.928Z,5.32
2022-10-28T09:10:14.854Z,5.70
2022-10-28T09:12:47.725Z,5.30
2022-10-28T09:15:21.943Z,5.80
2022-10-28T09:17:53.414Z,4.85
2022-10-28T09:20:27.411Z,5.80
2022-10-28T09:22:57.747Z,4.97
2022-10-28T09:25:29.146Z,5.38
2022-10-28T09:28:04.397Z,5.72
2022-10-28T09:30:36.860Z,5.47
2022-10-28T09:33:08.150Z,4.93
2022-10-28T09:35:40.835Z,4.93
2022-10-28T09:38:13.119Z,5.82
2022-10-28T09:40:42.054Z,5.18
2022-10-28T09:43:15.167Z,5.40
2022-10-28T09:45:46.086Z,4.97
2022-10-28T09:48:17.602Z,5.57
2022-10-28T09:50:46.543Z,5.38
2022-10-28T09:53:19.729Z,6.07
2022-10-28T09:55:47.390Z,4.60
2022-10-28T09:58:14.938Z,5.25
2022-10-28T10:00:42.525Z,5.15
2022-10-28T10:03:10.218Z,4.70
2022-10-28T10:05:40.085Z,5.35
2022-10-28T10:08:12.517Z,5.10
2022-10-28T10:10:44.785Z,4.30
2022-10-28T10:13:13.102Z,4.65
2022-10-28T10:15:43.488Z,5.28
2022-10-28T10:18:15.003Z,4.50
2022-10-28T10:20:50.323Z,5.22
2022-10-28T10:23:29.727Z,4.65
2022-10-28T10:26:04.471Z,4.78
2022-10-28T10:28:33.674Z,4.50
2022-10-28T10:31:02.795Z,4.47
2022-10-28T10:33:32.188Z,4.43
2022-10-28T10:36:02.002Z,4.50
2022-10-28T10:38:32.212Z,4.45
2022-10-28T10:41:00.183Z,4.28
2022-10-28T10:43:31.552Z,4.07
2022-10-28T10:46:03.522Z,4.47
2022-10-28T10:48:32.363Z,4.70
2022-10-28T10:51:05.327Z,5.00
2022-10-28T10:53:35.014Z,4.35
2022-10-28T10:56:03.430Z,5.20
2022-10-28T10:58:32.017Z,4.63
2022-10-28T11:01:01.385Z,4.40
2022-10-28T11:03:31.333Z,4.72
2022-10-28T11:06:21.893Z,4.45
2022-10-28T11:08:49.852Z,4.60
2022-10-28T11:11:20.470Z,4.80
2022-10-28T11:13:48.831Z,4.60
2022-10-28T11:16:21.209Z,4.25
2022-10-28T11:18:49.997Z,5.20
2022-10-28T11:21:44.396Z,4.50
2022-10-28T11:24:23.799Z,4.70
2022-10-28T11:26:56.626Z,4.45
2022-10-28T11:29:24.994Z,4.82
2022-10-28T11:32:03.963Z,5.00
2022-10-28T11:34:36.688Z,4.40
2022-10-28T11:37:09.488Z,5.00
2022-10-28T11:39:43.323Z,4.45
2022-10-28T11:42:15.570Z,4.75
2022-10-28T11:44:46.202Z,4.82
2022-10-28T11:47:25.448Z,5.57
2022-10-28T11:50:14.326Z,4.68
2022-10-28T11:52:49.417Z,4.95
2022-10-28T11:55:28.352Z,4.90
2022-10-28T11:58:01.026Z,5.40
2022-10-28T12:00:33.669Z,5.38
2022-10-28T12:03:13.250Z,5.28
2022-10-28T12:05:46.694Z,5.07
2022-10-28T12:08:20.178Z,5.57
2022-10-28T12:10:58.273Z,5.80
2022-10-28T12:13:29.961Z,4.90
2022-10-28T12:16:01.892Z,4.70
2022-10-28T12:18:33.503Z,5.20
2022-10-28T12:21:05.513Z,4.68
2022-10-28T12:23:34.683Z,5.18
2022-10-28T12:26:05.899Z,4.97
2022-10-28T12:28:34.525Z,5.28
2022-10-28T12:31:02.886Z,6.15
2022-10-28T12:33:33.919Z,6.43
2022-10-28T12:36:15.331Z,5.38
2022-10-28T12:38:46.008Z,5.90
2022-10-28T12:41:16.886Z,5.78
2022-10-28T12:43:46.913Z,5.93
2022-10-28T12:46:19.191Z,4.97
2022-10-28T12:48:49.560Z,5.65
2022-10-28T12:51:18.636Z,5.53
2022-10-28T12:53:47.910Z,4.75
2022-10-28T12:56:19.608Z,5.20
2022-10-28T12:58:52.428Z,5.32
2022-10-28T13:01:21.978Z,5.57
2022-10-28T13:03:50.633Z,5.80
2022-10-28T13:06:28.831Z,5.68
2022-10-28T13:09:06.565Z,5.75
2022-10-28T13:11:56.924Z,5.75
2022-10-28T13:14:34.003Z,5.40
2022-10-28T13:17:25.535Z,4.90
2022-10-28T13:19:57.775Z,5.53
2022-10-28T13:22:31.427Z,5.60
2022-10-28T13:25:03.208Z,5.57
2022-10-28T13:27:32.656Z,5.90
2022-10-28T13:30:02.811Z,5.80
2022-10-28T13:32:37.330Z,6.10
2022-10-28T13:35:13.589Z,5.90
2022-10-28T13:37:41.769Z,5.82
2022-10-28T13:40:21.270Z,5.80
2022-10-28T13:42:50.740Z,6.43
2022-10-28T13:45:37.155Z,6.25
2022-10-28T13:48:23.160Z,6.25
2022-10-28T13:50:50.768Z,6.28
2022-10-28T13:53:44.940Z,5.80
2022-10-28T13:56:17.606Z,7.05
2022-10-28T13:58:52.253Z,6.75
2022-10-28T14:01:40.041Z,6.60
2022-10-28T14:04:21.529Z,6.72
2022-10-28T14:06:49.358Z,5.82
2022-10-28T14:09:22.258Z,5.72
2022-10-28T14:12:04.394Z,6.78
2022-10-28T14:14:33.510Z,6.25
2022-10-28T14:17:01.305Z,6.50
2022-10-28T14:19:28.983Z,5.57
2022-10-28T14:22:02.381Z,5.88
2022-10-28T14:24:34.644Z,6.03
2022-10-28T14:27:26.491Z,5.75
2022-10-28T14:30:09.010Z,5.70
2022-10-28T14:32:44.773Z,6.20
2022-10-28T14:35:20.546Z,5.47
2022-10-28T14:38:12.307Z,7.13
2022-10-28T14:40:42.847Z,5.90
2022-10-28T14:43:30.555Z,6.75
2022-10-28T14:46:14.647Z,5.63
2022-10-28T14:48:48.863Z,5.28
2022-10-28T14:51:17.557Z,6.32
2022-10-28T14:53:46.276Z,7.25
2022-10-28T14:56:18.929Z,6.10
2022-10-28T14:58:46.558Z,6.15
2022-10-28T15:01:21.202Z,6.25
2022-10-28T15:03:51.929Z,6.25
2022-10-28T15:06:39.013Z,7.53
2022-10-28T15:09:09.270Z,5.90
2022-10-28T15:11:36.913Z,6.00
2022-10-28T15:14:14.612Z,6.07
2022-10-28T15:16:48.982Z,6.82
2022-10-28T15:19:20.240Z,6.50
2022-10-28T15:22:00.995Z,6.22
2022-10-28T15:24:28.561Z,5.80
2022-10-28T15:26:56.659Z,6.28
2022-10-28T15:29:24.623Z,6.10
2022-10-28T15:32:05.306Z,6.53
2022-10-28T15:34:34.284Z,4.97
2022-10-28T15:37:01.875Z,6.10
2022-10-28T15:39:29.417Z,5.97
2022-10-28T15:42:17.054Z,5.57
2022-10-28T15:44:44.618Z,5.32
2022-10-28T15:47:18.445Z,5.85
2022-10-28T15:49:58.410Z,5.85
2022-10-28T15:52:41.362Z,5.15
2022-10-28T15:55:35.787Z,5.80
2022-10-28T15:58:32.528Z,6.47
2022-10-28T16:01:00.182Z,6.20
2022-10-28T16:05:59.881Z,6.05
2022-10-28T16:08:29.696Z,5.47
2022-10-28T16:10:59.543Z,5.47
2022-10-28T16:13:29.044Z,5.47
2022-10-28T16:15:58.942Z,5.90
2022-10-28T16:18:27.910Z,5.32
2022-10-28T16:20:56.196Z,5.20
2022-10-28T16:23:26.519Z,5.97
2022-10-28T16:25:54.257Z,5.57
2022-10-28T16:28:23.367Z,4.93
2022-10-28T16:30:52.352Z,5.03
2022-10-28T16:33:20.168Z,5.82
2022-10-28T16:35:47.796Z,5.68
2022-10-28T16:38:15.677Z,5.25
2022-10-28T16:40:51.318Z,6.03
2022-10-28T16:43:20.713Z,5.50
2022-10-28T16:45:48.777Z,5.82
2022-10-28T16:48:17.213Z,5.78
2022-10-28T16:50:45.870Z,6.03
2022-10-28T16:53:14.123Z,5.30
2022-10-28T16:55:42.046Z,5.22
2022-10-28T16:58:11.334Z,5.82
2022-10-28T17:00:39.406Z,5.95
2022-10-28T17:03:07.025Z,5.47
2022-10-28T17:05:35.060Z,5.85
2022-10-28T17:08:07.307Z,7.57
2022-10-28T17:10:36.447Z,6.00
2022-10-28T17:13:04.149Z,6.35
2022-10-28T17:15:33.031Z,6.00
2022-10-28T17:18:00.699Z,5.80
2022-10-28T17:20:28.363Z,5.13
2022-10-28T17:22:58.112Z,6.10
2022-10-28T17:25:25.842Z,6.85
2022-10-28T17:27:53.848Z,6.05
2022-10-28T17:30:23.905Z,6.32
2022-10-28T17:32:53.917Z,5.53
2022-10-28T17:35:21.923Z,5.90
2022-10-28T17:37:49.702Z,6.45
2022-10-28T17:40:17.237Z,5.97
2022-10-28T17:42:44.895Z,5.85
2022-10-28T17:45:16.515Z,5.80
2022-10-28T17:47:47.226Z,6.32
2022-10-28T17:50:16.301Z,6.05
2022-10-28T17:52:44.063Z,5.70
2022-10-28T17:55:11.603Z,6.00
2022-10-28T17:57:39.274Z,5.38
2022-10-28T18:00:07.466Z,5.72
2022-10-28T18:02:40.561Z,5.55
2022-10-28T18:05:08.659Z,6.60
2022-10-28T18:07:37.793Z,5.18
2022-10-28T18:10:05.767Z,6.13
2022-10-28T18:12:33.593Z,5.20
2022-10-28T18:15:01.244Z,5.68
2022-10-28T18:17:29.041Z,6.03
2022-10-28T18:19:57.818Z,6.90
2022-10-28T18:24:59.315Z,6.97
2022-10-28T18:27:29.529Z,5.57
2022-10-28T18:29:57.188Z,6.72
2022-10-28T18:32:24.855Z,6.72
2022-10-28T18:34:52.511Z,6.28
2022-10-28T18:37:20.314Z,6.40
2022-10-28T18:39:48.070Z,6.93
2022-10-28T18:42:20.960Z,5.68
2022-10-28T18:44:49.594Z,6.10
2022-10-28T18:47:17.271Z,6.32
2022-10-28T18:49:45.513Z,6.78
2022-10-28T18:52:13.429Z,6.30
2022-10-28T18:54:41.071Z,6.20
2022-10-28T18:57:08.818Z,6.38
2022-10-28T18:59:52.345Z,6.55
2022-10-28T19:02:25.971Z,6.70
2022-10-28T19:04:53.719Z,16.75
2022-10-28T19:07:21.538Z,9.48
2022-10-28T19:09:49.079Z,8.07
2022-10-28T19:12:16.708Z,7.10
2022-10-28T19:14:45.619Z,6.90
2022-10-28T19:17:13.343Z,6.93
2022-10-28T19:19:40.896Z,6.35
2022-10-28T19:22:09.108Z,6.45
2022-10-28T19:24:36.580Z,6.40
2022-10-28T19:27:04.595Z,6.55
2022-10-28T19:29:32.226Z,6.93
2022-10-28T19:32:01.346Z,7.03
2022-10-28T19:34:29.185Z,6.65
2022-10-28T19:36:56.766Z,7.03
2022-10-28T19:39:24.396Z,7.30
2022-10-28T19:41:51.974Z,6.65
2022-10-28T19:44:19.495Z,7.57
2022-10-28T19:46:47.143Z,7.80
2022-10-28T19:49:16.011Z,7.75
2022-10-28T19:51:43.486Z,7.95
2022-10-28T19:54:12.188Z,7.75
2022-10-28T19:56:40.162Z,8.27
2022-10-28T19:59:07.759Z,7.82
2022-10-28T20:01:37.669Z,8.50
2022-10-28T20:04:05.454Z,7.85
2022-10-28T20:06:35.643Z,7.75
2022-10-28T20:09:03.280Z,7.80
2022-10-28T20:11:31.588Z,7.80
2022-10-28T20:14:00.719Z,21.23
2022-10-28T20:16:28.778Z,12.15
2022-10-28T20:18:57.328Z,8.98
2022-10-28T20:21:25.574Z,8.07
2022-10-28T20:23:55.669Z,9.05
2022-10-28T20:26:24.488Z,8.75
2022-10-28T20:28:52.136Z,8.68
2022-10-28T20:31:20.902Z,8.55
2022-10-28T20:33:50.914Z,8.45
2022-10-28T20:36:22.864Z,9.00
2022-10-28T20:38:55.108Z,8.38
2022-10-28T20:41:23.209Z,8.50
2022-10-28T20:43:51.237Z,9.48
2022-10-28T20:46:20.275Z,8.77
2022-10-28T20:48:48.421Z,8.85
2022-10-28T20:51:16.068Z,8.93
2022-10-28T20:53:43.826Z,8.57
2022-10-28T20:56:17.383Z,8.93
2022-10-28T20:58:44.984Z,8.15
2022-10-28T21:01:14.601Z,8.30
2022-10-28T21:03:42.389Z,8.63
2022-10-28T21:06:10.848Z,8.27
2022-10-28T21:08:38.647Z,8.18
2022-10-28T21:11:06.863Z,8.35
2022-10-28T21:13:35.780Z,8.38
2022-10-28T21:16:04.541Z,8.48
2022-10-28T21:18:32.151Z,7.55
2022-10-28T21:21:00.830Z,7.53
2022-10-28T21:23:28.933Z,8.15
2022-10-28T21:25:57.145Z,7.95
2022-10-28T21:28:25.091Z,7.38
2022-10-28T21:30:59.236Z,7.65
2022-10-28T21:33:26.764Z,6.57
2022-10-28T21:35:58.258Z,7.82
2022-10-28T21:38:26.288Z,6.90
2022-10-28T21:41:00.725Z,6.70
2022-10-28T21:43:29.248Z,7.03
2022-10-28T21:45:58.546Z,7.30
2022-10-28T21:48:26.469Z,6.65
2022-10-28T21:50:54.442Z,7.43
2022-10-28T21:53:22.322Z,6.68
2022-10-28T21:55:51.132Z,6.93
2022-10-28T21:58:19.339Z,7.00
2022-10-28T22:00:46.991Z,6.57
2022-10-28T22:03:15.984Z,6.68
2022-10-28T22:05:49.804Z,6.35
2022-10-28T22:08:17.824Z,6.68
2022-10-28T22:10:45.436Z,6.93
2022-10-28T22:13:13.034Z,6.22
2022-10-28T22:15:40.864Z,6.28
2022-10-28T22:18:08.453Z,6.22
2022-10-28T22:20:37.431Z,7.10
2022-10-28T22:23:05.104Z,6.78
2022-10-28T22:25:32.606Z,6.50
2022-10-28T22:28:00.125Z,6.28
2022-10-28T22:30:27.694Z,5.50
2022-10-28T22:32:55.721Z,5.57
2022-10-28T22:35:23.507Z,6.25
2022-10-28T22:37:52.719Z,6.03
2022-10-28T22:40:20.573Z,7.55
2022-10-28T22:42:48.088Z,6.88
2022-10-28T22:45:15.638Z,9.23
2022-10-28T22:47:43.417Z,7.68
2022-10-28T22:50:11.150Z,7.32
2022-10-28T22:52:38.964Z,8.55
2022-10-28T22:55:08.497Z,7.28
2022-10-28T22:57:36.222Z,7.00
2022-10-28T23:00:04.254Z,7.45
2022-10-28T23:02:32.100Z,6.78
2022-10-28T23:04:59.704Z,6.22
2022-10-28T23:07:27.252Z,6.53
2022-10-28T23:09:54.853Z,6.72
2022-10-28T23:12:23.766Z,5.82
2022-10-28T23:14:51.375Z,5.65
2022-10-28T23:17:18.915Z,6.65
2022-10-28T23:19:46.746Z,5.95
2022-10-28T23:22:14.421Z,7.65
2022-10-28T23:24:42.396Z,5.03
2022-10-28T23:27:10.222Z,5.95
2022-10-28T23:29:39.369Z,5.85
2022-10-28T23:32:06.981Z,6.07
2022-10-28T23:34:34.594Z,6.10
2022-10-28T23:37:02.525Z,5.20
2022-10-28T23:39:30.465Z,5.05
2022-10-28T23:41:58.335Z,5.55
2022-10-28T23:44:26.525Z,4.65
2022-10-28T23:46:55.675Z,5.30
2022-10-28T23:49:23.303Z,5.78
2022-10-28T23:51:50.815Z,5.22
2022-10-28T23:54:18.364Z,4.93
2022-10-28T23:56:45.866Z,5.40
2022-10-28T23:59:13.631Z,5.10
